Time;durP1;ratioP1;P1;durP2;ratioP2;P2;SDS_P1;SDS_P2;PMS_P1;PMS_P2;Temp;Humidity;BMP_temperature;BMP_pressure;BME280_temperature;BME280_humidity;BME280_pressure;Samples;Min_cycle;Max_cycle;Signal;HPM_P1;HPM_P2
2022/03/31 00:02:22;;;;;;;;;;;9.70;49.20;;;;;;6300855;22;19911;-87
2022/03/31 00:04:47;;;;;;;;;;;9.70;49.30;;;;;;6277774;22;19908;-86
2022/03/31 00:07:13;;;;;;;;;;;9.70;49.40;;;;;;6277877;22;20221;-86
2022/03/31 00:09:38;;;;;;;;;;;9.70;49.40;;;;;;6278511;22;19990;-87
2022/03/31 00:12:04;;;;;;;;;;;9.70;49.40;;;;;;6302771;22;19911;-87
2022/03/31 00:14:29;;;;;;;;;;;9.70;49.50;;;;;;6281328;22;19982;-85
2022/03/31 00:16:55;;;;;;;;;;;9.70;49.40;;;;;;6305858;22;19970;-86
2022/03/31 00:19:22;;;;;;;;;;;9.80;49.30;;;;;;6308144;22;19982;-87
2022/03/31 00:21:48;;;;;;;;;;;9.70;49.20;;;;;;6303012;22;20208;-86
2022/03/31 00:24:15;;;;;;;;;;;9.80;49.10;;;;;;6302912;22;19907;-87
2022/03/31 00:26:40;;;;;;;;;;;9.80;49.10;;;;;;6277259;22;19915;-87
2022/03/31 00:29:07;;;;;;;;;;;9.80;49.20;;;;;;6302528;22;19911;-87
2022/03/31 00:31:33;;;;;;;;;;;9.80;49.20;;;;;;6278367;22;19986;-87
2022/03/31 00:33:58;;;;;;;;;;;9.80;49.30;;;;;;6303022;22;19918;-87
2022/03/31 00:36:24;;;;;;;;;;;9.80;49.30;;;;;;6278294;22;19916;-87
2022/03/31 00:41:36;;;;;;;;;;;9.90;49.10;;;;;;6276195;22;19914;-87
2022/03/31 00:44:01;;;;;;;;;;;9.90;49.20;;;;;;6301615;22;19907;-87
2022/03/31 00:46:27;;;;;;;;;;;9.90;49.30;;;;;;6274348;22;19957;-86
2022/03/31 00:48:52;;;;;;;;;;;9.90;49.20;;;;;;6274414;22;19943;-87
2022/03/31 00:51:18;;;;;;;;;;;9.90;49.20;;;;;;6275940;22;19969;-87
2022/03/31 00:53:43;;;;;;;;;;;9.90;49.10;;;;;;6275992;22;19918;-87
2022/03/31 00:56:09;;;;;;;;;;;10.00;49.00;;;;;;6276148;22;19907;-88
2022/03/31 00:58:35;;;;;;;;;;;10.00;48.90;;;;;;6274615;22;20205;-86
2022/03/31 01:01:00;;;;;;;;;;;10.00;48.80;;;;;;6275661;22;20309;-88
2022/03/31 01:03:26;;;;;;;;;;;10.00;48.70;;;;;;6301448;22;19916;-87
2022/03/31 01:05:51;;;;;;;;;;;10.00;48.60;;;;;;6301798;22;19911;-87
2022/03/31 01:08:17;;;;;;;;;;;10.10;48.50;;;;;;6275664;22;20240;-85
2022/03/31 01:10:44;;;;;;;;;;;10.10;48.40;;;;;;6275673;22;20065;-86
2022/03/31 01:13:09;;;;;;;;;;;10.10;48.40;;;;;;6302026;22;19911;-86
2022/03/31 01:15:36;;;;;;;;;;;10.10;48.40;;;;;;6277134;22;20320;-87
2022/03/31 01:18:01;;;;;;;;;;;10.20;48.40;;;;;;6301430;22;19920;-86
2022/03/31 01:20:27;;;;;;;;;;;10.20;48.30;;;;;;6277629;22;19908;-87
2022/03/31 01:22:53;;;;;;;;;;;10.20;48.40;;;;;;6277339;22;19998;-86
2022/03/31 01:25:18;;;;;;;;;;;10.20;48.30;;;;;;6277428;22;19908;-86
2022/03/31 01:27:44;;;;;;;;;;;10.30;48.20;;;;;;6277362;22;20304;-86
2022/03/31 01:30:11;;;;;;;;;;;10.30;48.30;;;;;;6301729;22;20243;-86
2022/03/31 01:32:37;;;;;;;;;;;10.30;48.30;;;;;;6301385;22;19911;-86
2022/03/31 01:35:03;;;;;;;;;;;10.30;48.40;;;;;;6275737;22;19909;-87
2022/03/31 01:37:28;;;;;;;;;;;10.30;48.40;;;;;;6301462;22;19998;-86
2022/03/31 01:39:55;;;;;;;;;;;10.30;48.40;;;;;;6302509;22;20339;-86
2022/03/31 01:42:22;;;;;;;;;;;10.30;48.40;;;;;;6278327;22;19942;-87
2022/03/31 01:44:48;;;;;;;;;;;10.30;48.40;;;;;;6278129;22;19903;-88
2022/03/31 01:47:14;;;;;;;;;;;10.30;48.30;;;;;;6302341;22;19911;-86
2022/03/31 01:49:39;;;;;;;;;;;10.40;48.20;;;;;;6301749;22;20259;-87
2022/03/31 01:52:06;;;;;;;;;;;10.40;48.20;;;;;;6276434;22;19911;-86
2022/03/31 01:54:32;;;;;;;;;;;10.40;48.20;;;;;;6301668;22;20309;-86
2022/03/31 01:56:57;;;;;;;;;;;10.40;48.20;;;;;;6301641;22;19927;-87
2022/03/31 01:59:23;;;;;;;;;;;10.40;48.20;;;;;;6275857;22;19907;-86
2022/03/31 02:01:48;;;;;;;;;;;10.40;48.20;;;;;;6276975;22;19982;-88
2022/03/31 02:04:15;;;;;;;;;;;10.40;48.10;;;;;;6277431;22;19953;-87
2022/03/31 02:06:41;;;;;;;;;;;10.50;48.10;;;;;;6301164;22;19923;-87
2022/03/31 02:09:06;;;;;;;;;;;10.40;48.10;;;;;;6278098;22;19922;-88
2022/03/31 02:11:33;;;;;;;;;;;10.50;48.00;;;;;;6300723;22;20285;-87
2022/03/31 02:13:58;;;;;;;;;;;10.50;48.10;;;;;;6301207;22;19915;-87
2022/03/31 02:16:24;;;;;;;;;;;10.50;48.10;;;;;;6300996;22;19903;-87
2022/03/31 02:18:49;;;;;;;;;;;10.50;48.10;;;;;;6301479;22;19911;-87
2022/03/31 02:21:15;;;;;;;;;;;10.50;48.10;;;;;;6301711;22;19903;-87
2022/03/31 02:23:41;;;;;;;;;;;10.60;48.20;;;;;;6277160;22;20041;-88
2022/03/31 02:26:06;;;;;;;;;;;10.50;48.20;;;;;;6276347;22;19915;-88
2022/03/31 02:28:32;;;;;;;;;;;10.50;48.10;;;;;;6276182;22;20263;-87
2022/03/31 02:30:57;;;;;;;;;;;10.60;48.10;;;;;;6274375;22;19914;-87
2022/03/31 02:33:23;;;;;;;;;;;10.60;48.00;;;;;;6275900;22;20271;-87
2022/03/31 02:35:48;;;;;;;;;;;10.60;47.90;;;;;;6300310;22;19904;-87
2022/03/31 02:38:14;;;;;;;;;;;10.70;47.90;;;;;;6277431;22;19942;-87
2022/03/31 02:40:42;;;;;;;;;;;10.70;47.80;;;;;;6301455;22;19961;-87
2022/03/31 02:43:07;;;;;;;;;;;10.70;47.70;;;;;;6277243;22;19919;-89
2022/03/31 02:45:33;;;;;;;;;;;10.70;47.70;;;;;;6276608;22;19910;-87
2022/03/31 02:47:58;;;;;;;;;;;10.80;47.70;;;;;;6277111;22;20279;-88
2022/03/31 02:50:24;;;;;;;;;;;10.70;47.60;;;;;;6277498;22;19939;-87
2022/03/31 02:55:34;;;;;;;;;;;10.80;47.50;;;;;;6277115;22;19910;-87
2022/03/31 02:58:01;;;;;;;;;;;10.80;47.50;;;;;;6301184;22;20402;-87
2022/03/31 03:00:27;;;;;;;;;;;10.80;47.40;;;;;;6275748;22;20037;-86
2022/03/31 03:02:53;;;;;;;;;;;10.80;47.40;;;;;;6275223;22;19907;-86
2022/03/31 03:05:19;;;;;;;;;;;10.80;47.40;;;;;;6301233;22;20343;-86
2022/03/31 03:07:44;;;;;;;;;;;10.90;47.40;;;;;;6301251;22;19907;-88
2022/03/31 03:10:10;;;;;;;;;;;10.90;47.40;;;;;;6301095;22;20312;-86
2022/03/31 03:12:36;;;;;;;;;;;10.90;47.30;;;;;;6277184;22;19986;-87
2022/03/31 03:15:02;;;;;;;;;;;10.90;47.30;;;;;;6277251;22;20347;-87
2022/03/31 03:17:27;;;;;;;;;;;10.90;47.30;;;;;;6301015;22;19922;-88
2022/03/31 03:19:53;;;;;;;;;;;10.90;47.30;;;;;;6300814;22;19957;-87
2022/03/31 03:22:18;;;;;;;;;;;10.90;47.30;;;;;;6276525;22;19914;-87
2022/03/31 03:24:43;;;;;;;;;;;10.90;47.30;;;;;;6276928;22;19978;-88
2022/03/31 03:27:09;;;;;;;;;;;10.90;47.30;;;;;;6275190;22;19918;-87
2022/03/31 03:29:34;;;;;;;;;;;10.90;47.20;;;;;;6275779;22;20411;-87
2022/03/31 03:32:00;;;;;;;;;;;10.90;47.20;;;;;;6301179;22;19938;-86
2022/03/31 03:34:25;;;;;;;;;;;11.00;47.20;;;;;;6276986;22;19914;-87
2022/03/31 03:36:51;;;;;;;;;;;11.00;47.20;;;;;;6275259;22;19915;-87
2022/03/31 03:39:16;;;;;;;;;;;11.00;47.20;;;;;;6275006;22;19933;-88
2022/03/31 03:41:42;;;;;;;;;;;11.00;47.20;;;;;;6276912;22;19903;-87
2022/03/31 03:44:07;;;;;;;;;;;11.00;47.20;;;;;;6301094;22;19934;-87
2022/03/31 03:46:33;;;;;;;;;;;11.00;47.20;;;;;;6276897;22;19903;-87
2022/03/31 03:48:58;;;;;;;;;;;11.00;47.20;;;;;;6276911;22;19961;-87
2022/03/31 03:51:24;;;;;;;;;;;11.00;47.30;;;;;;6275520;22;19912;-86
2022/03/31 03:53:50;;;;;;;;;;;10.90;47.60;;;;;;6275388;22;20349;-87
2022/03/31 03:56:16;;;;;;;;;;;10.80;47.90;;;;;;6300457;22;19903;-87
2022/03/31 03:58:41;;;;;;;;;;;10.80;49.20;;;;;;6276765;22;19961;-87
2022/03/31 04:01:08;;;;;;;;;;;10.70;50.30;;;;;;6301233;22;20025;-88
2022/03/31 04:03:33;;;;;;;;;;;10.70;51.50;;;;;;6277102;22;19907;-88
2022/03/31 04:05:59;;;;;;;;;;;10.70;52.40;;;;;;6276820;22;20280;-87
2022/03/31 04:08:24;;;;;;;;;;;10.60;52.90;;;;;;6301227;22;19914;-88
2022/03/31 04:10:50;;;;;;;;;;;10.60;53.40;;;;;;6275180;22;19907;-88
2022/03/31 04:13:15;;;;;;;;;;;10.60;53.90;;;;;;6276922;22;19911;-88
2022/03/31 04:15:41;;;;;;;;;;;10.60;54.40;;;;;;6301220;22;19998;-88
2022/03/31 04:18:07;;;;;;;;;;;10.60;54.60;;;;;;6276850;22;20411;-88
2022/03/31 04:20:33;;;;;;;;;;;10.60;54.90;;;;;;6276860;22;19914;-88
2022/03/31 04:23:01;;;;;;;;;;;10.60;55.10;;;;;;6275997;22;19911;-88
2022/03/31 04:25:26;;;;;;;;;;;10.60;55.30;;;;;;6277249;22;19990;-89
2022/03/31 04:27:52;;;;;;;;;;;10.60;55.60;;;;;;6262697;22;20410;-89
2022/03/31 04:30:20;;;;;;;;;;;10.50;55.80;;;;;;6275351;22;19908;-89
2022/03/31 04:32:46;;;;;;;;;;;10.50;56.00;;;;;;6301488;22;19945;-88
2022/03/31 04:35:12;;;;;;;;;;;10.50;56.20;;;;;;6302986;22;19994;-88
2022/03/31 04:37:38;;;;;;;;;;;10.50;56.30;;;;;;6302439;22;19938;-88
2022/03/31 04:40:04;;;;;;;;;;;10.50;56.50;;;;;;6278532;22;19908;-88
2022/03/31 04:42:30;;;;;;;;;;;10.50;56.60;;;;;;6302714;22;19908;-87
2022/03/31 04:44:55;;;;;;;;;;;10.40;56.80;;;;;;6302409;22;20239;-87
2022/03/31 04:47:21;;;;;;;;;;;10.40;56.80;;;;;;6278620;22;19914;-88
2022/03/31 04:49:46;;;;;;;;;;;10.30;57.10;;;;;;6279009;22;19922;-88
2022/03/31 04:52:12;;;;;;;;;;;10.30;57.20;;;;;;6278444;22;19961;-89
2022/03/31 04:54:43;;;;;;;;;;;10.30;57.30;;;;;;6279955;22;19918;-89
2022/03/31 04:57:13;;;;;;;;;;;10.30;57.50;;;;;;6302946;22;19922;-88
2022/03/31 04:59:38;;;;;;;;;;;10.30;57.60;;;;;;6303195;22;19911;-86
2022/03/31 05:02:04;;;;;;;;;;;10.40;57.70;;;;;;6278836;22;20235;-88
2022/03/31 05:04:30;;;;;;;;;;;10.40;57.70;;;;;;6279225;22;19915;-87
2022/03/31 05:06:55;;;;;;;;;;;10.40;57.80;;;;;;6303599;22;19973;-87
2022/03/31 05:09:21;;;;;;;;;;;10.50;57.90;;;;;;6277271;22;19918;-87
2022/03/31 05:11:47;;;;;;;;;;;10.50;57.90;;;;;;6277452;22;19933;-88
2022/03/31 05:14:12;;;;;;;;;;;10.50;58.00;;;;;;6279031;22;19911;-88
2022/03/31 05:16:37;;;;;;;;;;;10.50;58.00;;;;;;6277599;22;19919;-88
2022/03/31 05:19:03;;;;;;;;;;;10.50;58.10;;;;;;6302672;22;19954;-88
2022/03/31 05:21:29;;;;;;;;;;;10.60;58.10;;;;;;6278400;22;19914;-88
2022/03/31 05:23:54;;;;;;;;;;;10.60;58.20;;;;;;6278177;22;20005;-88
2022/03/31 05:26:23;;;;;;;;;;;10.60;58.30;;;;;;6302436;22;19961;-89
2022/03/31 05:28:48;;;;;;;;;;;10.60;58.40;;;;;;6302670;22;19911;-88
2022/03/31 05:31:14;;;;;;;;;;;10.60;58.40;;;;;;6276336;22;20292;-88
2022/03/31 05:33:40;;;;;;;;;;;10.60;58.40;;;;;;6279689;22;19915;-87
2022/03/31 05:36:05;;;;;;;;;;;10.70;58.50;;;;;;6307232;22;19914;-87
2022/03/31 05:38:32;;;;;;;;;;;10.70;58.60;;;;;;6304454;22;19919;-88
2022/03/31 05:40:57;;;;;;;;;;;10.70;58.60;;;;;;6280128;22;19914;-88
2022/03/31 05:43:26;;;;;;;;;;;10.70;58.60;;;;;;6280658;22;19939;-87
2022/03/31 05:45:54;;;;;;;;;;;10.80;58.50;;;;;;6305920;22;19994;-87
2022/03/31 05:48:20;;;;;;;;;;;10.80;58.50;;;;;;6281903;22;19911;-88
2022/03/31 05:50:45;;;;;;;;;;;10.80;58.70;;;;;;6305342;22;19912;-87
2022/03/31 05:53:13;;;;;;;;;;;10.90;58.70;;;;;;6305216;22;19907;-88
2022/03/31 05:55:38;;;;;;;;;;;11.00;58.70;;;;;;6280980;22;19918;-87
2022/03/31 05:58:04;;;;;;;;;;;11.00;58.80;;;;;;6303749;22;19994;-87
2022/03/31 06:00:29;;;;;;;;;;;11.00;58.80;;;;;;6303142;22;19919;-88
2022/03/31 06:02:55;;;;;;;;;;;11.10;58.80;;;;;;6279786;22;20400;-88
2022/03/31 06:05:21;;;;;;;;;;;11.10;58.60;;;;;;6279619;22;20398;-88
2022/03/31 06:07:47;;;;;;;;;;;11.10;58.60;;;;;;6277480;22;19911;-88
2022/03/31 06:10:12;;;;;;;;;;;11.10;58.20;;;;;;6301723;22;19915;-88
2022/03/31 06:12:38;;;;;;;;;;;11.10;58.10;;;;;;6277347;22;19911;-87
2022/03/31 06:15:04;;;;;;;;;;;11.10;58.30;;;;;;6276946;22;19911;-88
2022/03/31 06:17:29;;;;;;;;;;;11.20;58.40;;;;;;6274577;22;19923;-88
2022/03/31 06:19:55;;;;;;;;;;;11.10;58.20;;;;;;6274745;22;19912;-88
2022/03/31 06:22:21;;;;;;;;;;;11.20;58.00;;;;;;6276764;22;19915;-87
2022/03/31 06:24:46;;;;;;;;;;;11.20;57.80;;;;;;6301098;22;19915;-88
2022/03/31 06:27:12;;;;;;;;;;;11.20;58.00;;;;;;6276641;22;19907;-88
2022/03/31 06:29:38;;;;;;;;;;;11.10;57.50;;;;;;6276868;22;19915;-87
2022/03/31 06:32:06;;;;;;;;;;;11.20;57.70;;;;;;6275521;22;20357;-88
2022/03/31 06:34:31;;;;;;;;;;;11.20;58.00;;;;;;6300074;22;19915;-88
2022/03/31 06:36:57;;;;;;;;;;;11.30;57.80;;;;;;6275391;22;19923;-88
2022/03/31 06:39:23;;;;;;;;;;;11.40;57.90;;;;;;6277229;22;20374;-88
2022/03/31 06:41:48;;;;;;;;;;;11.40;57.70;;;;;;6301000;22;19953;-86
2022/03/31 06:44:15;;;;;;;;;;;11.50;58.00;;;;;;6274518;22;19934;-87
2022/03/31 06:46:41;;;;;;;;;;;11.70;58.40;;;;;;6300825;22;19907;-87
2022/03/31 06:49:07;;;;;;;;;;;11.80;58.50;;;;;;6300592;22;20229;-86
2022/03/31 06:51:33;;;;;;;;;;;11.90;58.30;;;;;;6276203;22;19908;-87
2022/03/31 06:53:59;;;;;;;;;;;12.00;57.50;;;;;;6276667;22;19918;-88
2022/03/31 06:56:27;;;;;;;;;;;12.00;57.80;;;;;;6274169;22;19981;-87
2022/03/31 06:58:53;;;;;;;;;;;12.20;58.10;;;;;;6289001;22;20252;-88
2022/03/31 07:01:19;;;;;;;;;;;12.30;58.10;;;;;;6301756;22;19908;-87
2022/03/31 07:03:44;;;;;;;;;;;12.40;58.00;;;;;;6275325;22;19954;-88
2022/03/31 07:06:10;;;;;;;;;;;12.50;57.60;;;;;;6300535;22;19912;-88
2022/03/31 07:08:36;;;;;;;;;;;12.50;57.70;;;;;;6276074;22;19939;-87
2022/03/31 07:11:02;;;;;;;;;;;12.60;57.20;;;;;;6301022;22;19937;-88
2022/03/31 07:13:29;;;;;;;;;;;12.70;57.10;;;;;;6275679;22;19915;-88
2022/03/31 07:15:54;;;;;;;;;;;12.80;57.20;;;;;;6302641;22;20273;-88
2022/03/31 07:18:20;;;;;;;;;;;12.90;57.50;;;;;;6275981;22;19995;-87
2022/03/31 07:20:45;;;;;;;;;;;13.00;55.10;;;;;;6275019;22;19922;-88
2022/03/31 07:23:11;;;;;;;;;;;13.00;55.30;;;;;;6300927;22;19907;-87
2022/03/31 07:25:37;;;;;;;;;;;13.10;56.50;;;;;;6301882;22;19935;-88
2022/03/31 07:28:03;;;;;;;;;;;13.30;56.60;;;;;;6277347;22;19915;-88
2022/03/31 07:30:28;;;;;;;;;;;13.40;55.70;;;;;;6301121;22;19998;-88
2022/03/31 07:32:58;;;;;;;;;;;13.40;55.30;;;;;;6301480;22;19903;-88
2022/03/31 07:35:26;;;;;;;;;;;13.50;55.40;;;;;;6277522;22;19911;-87
2022/03/31 07:37:52;;;;;;;;;;;13.60;55.20;;;;;;6249651;22;19961;-88
2022/03/31 07:40:19;;;;;;;;;;;13.80;55.30;;;;;;6301066;22;19923;-89
2022/03/31 07:42:44;;;;;;;;;;;13.90;55.20;;;;;;6300627;22;19918;-87
2022/03/31 07:45:11;;;;;;;;;;;14.00;54.40;;;;;;6301346;22;19911;-88
2022/03/31 07:47:37;;;;;;;;;;;14.00;53.30;;;;;;6301795;22;19907;-87
2022/03/31 07:50:03;;;;;;;;;;;14.00;51.50;;;;;;6301598;22;19911;-88
2022/03/31 07:52:28;;;;;;;;;;;13.90;52.20;;;;;;6274995;22;19941;-88
2022/03/31 07:54:54;;;;;;;;;;;14.00;51.30;;;;;;6301772;22;19927;-89
2022/03/31 07:57:19;;;;;;;;;;;14.00;52.00;;;;;;6300737;22;19923;-88
2022/03/31 07:59:45;;;;;;;;;;;14.00;52.70;;;;;;6299604;22;19965;-88
2022/03/31 08:02:10;;;;;;;;;;;14.00;53.10;;;;;;6301313;22;19903;-88
2022/03/31 08:04:36;;;;;;;;;;;14.00;52.30;;;;;;6277097;22;19935;-88
2022/03/31 08:07:01;;;;;;;;;;;14.00;52.70;;;;;;6276953;22;19904;-88
2022/03/31 08:09:27;;;;;;;;;;;13.90;52.70;;;;;;6278770;22;19922;-87
2022/03/31 08:11:53;;;;;;;;;;;14.00;52.30;;;;;;6303424;22;19903;-89
2022/03/31 08:14:19;;;;;;;;;;;13.90;52.60;;;;;;6301887;22;19916;-87
2022/03/31 08:16:49;;;;;;;;;;;13.90;52.60;;;;;;6302791;22;19951;-89
2022/03/31 08:19:17;;;;;;;;;;;13.90;52.80;;;;;;6302516;22;19938;-87
2022/03/31 08:21:43;;;;;;;;;;;14.00;53.00;;;;;;6279198;22;19949;-88
2022/03/31 08:24:09;;;;;;;;;;;14.00;52.30;;;;;;6276951;22;19911;-88
2022/03/31 08:26:35;;;;;;;;;;;14.00;52.10;;;;;;6279031;22;20321;-89
2022/03/31 08:29:00;;;;;;;;;;;14.00;51.00;;;;;;6303573;22;19915;-88
2022/03/31 08:31:27;;;;;;;;;;;13.90;51.60;;;;;;6279169;22;19987;-88
2022/03/31 08:33:53;;;;;;;;;;;13.90;51.30;;;;;;6290601;22;20340;-88
2022/03/31 08:36:19;;;;;;;;;;;13.90;51.00;;;;;;6278150;22;19907;-88
2022/03/31 08:38:44;;;;;;;;;;;13.80;50.20;;;;;;6279129;22;19907;-88
2022/03/31 08:41:11;;;;;;;;;;;13.70;49.40;;;;;;6278632;22;19930;-88
2022/03/31 08:43:41;;;;;;;;;;;13.60;49.90;;;;;;6278693;22;19914;-87
2022/03/31 08:46:08;;;;;;;;;;;13.60;49.80;;;;;;6303478;22;20010;-88
2022/03/31 08:48:34;;;;;;;;;;;13.50;49.40;;;;;;6302914;22;19982;-88
2022/03/31 08:50:59;;;;;;;;;;;13.50;50.20;;;;;;6278174;22;19911;-88
2022/03/31 08:53:25;;;;;;;;;;;13.40;49.80;;;;;;6276554;22;20425;-88
2022/03/31 08:55:50;;;;;;;;;;;13.40;50.10;;;;;;6278034;22;19911;-88
2022/03/31 08:58:16;;;;;;;;;;;13.40;50.40;;;;;;6278171;22;19915;-88
2022/03/31 09:00:43;;;;;;;;;;;13.40;48.60;;;;;;6302252;22;19907;-87
2022/03/31 09:03:08;;;;;;;;;;;13.30;49.10;;;;;;6277052;22;19907;-87
2022/03/31 09:05:38;;;;;;;;;;;13.30;48.70;;;;;;6276636;22;19914;-87
2022/03/31 09:08:05;;;;;;;;;;;13.30;48.70;;;;;;6279151;22;19907;-89
2022/03/31 09:10:35;;;;;;;;;;;13.40;49.30;;;;;;6303705;22;19935;-88
2022/03/31 09:13:02;;;;;;;;;;;13.40;49.10;;;;;;6279703;22;20185;-88
2022/03/31 09:15:28;;;;;;;;;;;13.40;47.90;;;;;;6303081;22;19907;-88
2022/03/31 09:17:55;;;;;;;;;;;13.40;47.50;;;;;;6303059;22;19920;-88
2022/03/31 09:20:21;;;;;;;;;;;13.40;47.60;;;;;;6276951;22;19907;-88
2022/03/31 09:22:49;;;;;;;;;;;13.50;48.30;;;;;;6302690;22;19911;-88
2022/03/31 09:25:25;;;;;;;;;;;13.50;47.70;;;;;;6303461;22;19918;-88
2022/03/31 09:27:50;;;;;;;;;;;13.50;47.60;;;;;;6279118;22;19903;-88
2022/03/31 09:30:17;;;;;;;;;;;13.50;47.30;;;;;;6278425;22;20660;-86
2022/03/31 09:32:50;;;;;;;;;;;13.50;46.80;;;;;;6302807;22;19903;-88
2022/03/31 09:35:25;;;;;;;;;;;13.50;47.10;;;;;;6276319;22;19929;-88
2022/03/31 09:37:54;;;;;;;;;;;13.50;46.60;;;;;;6278159;22;19918;-88
2022/03/31 09:40:20;;;;;;;;;;;13.50;46.40;;;;;;6278639;22;19941;-88
2022/03/31 09:42:58;;;;;;;;;;;13.50;46.10;;;;;;6302541;22;19903;-88
2022/03/31 09:45:24;;;;;;;;;;;13.50;46.30;;;;;;6277909;22;19986;-87
2022/03/31 09:47:51;;;;;;;;;;;13.50;45.70;;;;;;6279364;22;19907;-88
2022/03/31 09:50:17;;;;;;;;;;;13.50;45.70;;;;;;6278743;22;20319;-87
2022/03/31 09:52:43;;;;;;;;;;;13.40;45.10;;;;;;6278529;22;20270;-88
2022/03/31 09:55:18;;;;;;;;;;;13.40;45.40;;;;;;6277769;22;19957;-87
2022/03/31 09:57:45;;;;;;;;;;;13.50;45.70;;;;;;6279605;22;20339;-89
2022/03/31 10:00:11;;;;;;;;;;;13.50;45.80;;;;;;6277168;22;19915;-87
2022/03/31 10:02:37;;;;;;;;;;;13.60;45.80;;;;;;6276861;22;20550;-88
2022/03/31 10:05:04;;;;;;;;;;;13.60;44.70;;;;;;6276531;22;19912;-88
2022/03/31 10:07:30;;;;;;;;;;;13.60;44.20;;;;;;6302947;22;19904;-88
2022/03/31 10:09:56;;;;;;;;;;;13.60;44.70;;;;;;6303063;22;19911;-88
2022/03/31 10:12:26;;;;;;;;;;;13.50;44.10;;;;;;6278538;22;20374;-88
2022/03/31 10:15:01;;;;;;;;;;;13.50;44.70;;;;;;6278482;22;19922;-89
2022/03/31 10:17:27;;;;;;;;;;;13.50;44.40;;;;;;6278290;22;19919;-87
2022/03/31 10:19:54;;;;;;;;;;;13.60;44.10;;;;;;6302350;22;19915;-88
2022/03/31 10:25:09;;;;;;;;;;;13.50;44.00;;;;;;6278635;22;19976;-87
2022/03/31 10:27:36;;;;;;;;;;;13.50;44.50;;;;;;6277793;22;20235;-88
2022/03/31 10:30:16;;;;;;;;;;;13.60;44.90;;;;;;6302952;22;19943;-88
2022/03/31 10:32:51;;;;;;;;;;;13.70;44.40;;;;;;6276923;22;19911;-88
2022/03/31 10:35:25;;;;;;;;;;;13.90;44.30;;;;;;6303021;22;19934;-88
2022/03/31 10:37:51;;;;;;;;;;;14.10;44.30;;;;;;6278446;22;19919;-88
2022/03/31 10:40:27;;;;;;;;;;;14.30;44.30;;;;;;6303119;22;20279;-88
2022/03/31 10:42:56;;;;;;;;;;;14.50;43.90;;;;;;6290318;22;19918;-88
2022/03/31 10:45:32;;;;;;;;;;;14.60;43.40;;;;;;6278304;22;19931;-88
2022/03/31 10:47:57;;;;;;;;;;;14.80;43.80;;;;;;6291108;22;19911;-87
2022/03/31 10:50:24;;;;;;;;;;;14.80;43.30;;;;;;6302702;22;19910;-88
2022/03/31 10:53:03;;;;;;;;;;;14.90;41.60;;;;;;6302504;22;19918;-87
2022/03/31 10:55:36;;;;;;;;;;;14.80;41.30;;;;;;6303100;22;19950;-87
2022/03/31 10:58:01;;;;;;;;;;;14.80;41.60;;;;;;6277030;22;20350;-87
2022/03/31 11:00:27;;;;;;;;;;;14.80;41.20;;;;;;6278545;22;19993;-87
2022/03/31 11:02:54;;;;;;;;;;;15.00;40.90;;;;;;6302677;22;19994;-89
2022/03/31 11:05:21;;;;;;;;;;;15.00;40.90;;;;;;6277169;22;19986;-87
2022/03/31 11:07:48;;;;;;;;;;;15.30;41.00;;;;;;6302796;22;19964;-89
2022/03/31 11:10:15;;;;;;;;;;;15.60;40.70;;;;;;6278824;22;19914;-89
2022/03/31 11:12:41;;;;;;;;;;;15.80;39.80;;;;;;6278485;22;19933;-88
2022/03/31 11:15:07;;;;;;;;;;;16.00;39.50;;;;;;6277927;22;20665;-87
2022/03/31 11:17:33;;;;;;;;;;;16.10;38.40;;;;;;6276029;22;19922;-88
2022/03/31 11:20:03;;;;;;;;;;;16.10;37.70;;;;;;6276229;22;19907;-88
2022/03/31 11:22:29;;;;;;;;;;;16.00;37.50;;;;;;6302349;22;19938;-89
2022/03/31 11:25:06;;;;;;;;;;;15.90;36.40;;;;;;6301551;22;19907;-87
2022/03/31 11:27:36;;;;;;;;;;;15.80;37.50;;;;;;6277806;22;19914;-88
2022/03/31 11:30:11;;;;;;;;;;;15.80;38.30;;;;;;6277600;22;19908;-89
2022/03/31 11:32:39;;;;;;;;;;;15.70;37.20;;;;;;6301492;22;22044;-89
2022/03/31 11:35:12;;;;;;;;;;;15.50;37.80;;;;;;6302581;22;19958;-89
2022/03/31 11:38:04;;;;;;;;;;;15.40;37.80;;;;;;6278323;22;20288;-88
2022/03/31 11:40:34;;;;;;;;;;;15.30;38.10;;;;;;6270123;22;19922;-88
2022/03/31 11:43:01;;;;;;;;;;;15.10;38.30;;;;;;6278883;22;19932;-88
2022/03/31 11:45:26;;;;;;;;;;;15.10;38.70;;;;;;6302474;22;20133;-87
2022/03/31 11:47:56;;;;;;;;;;;15.20;38.40;;;;;;6280304;22;19907;-87
2022/03/31 11:50:21;;;;;;;;;;;15.10;38.40;;;;;;6305688;22;20251;-87
2022/03/31 11:52:48;;;;;;;;;;;15.10;38.00;;;;;;6278842;22;19914;-88
2022/03/31 11:55:14;;;;;;;;;;;15.00;38.10;;;;;;6278706;22;20228;-88
2022/03/31 11:57:49;;;;;;;;;;;15.00;38.10;;;;;;6281410;22;19918;-88
2022/03/31 12:00:14;;;;;;;;;;;14.90;38.00;;;;;;6278474;22;19997;-88
2022/03/31 12:02:40;;;;;;;;;;;14.90;38.00;;;;;;6281442;22;19907;-88
2022/03/31 12:05:12;;;;;;;;;;;14.80;37.80;;;;;;6302345;22;19911;-89
2022/03/31 12:07:39;;;;;;;;;;;14.80;37.90;;;;;;6304378;22;19915;-87
2022/03/31 12:10:04;;;;;;;;;;;14.80;37.70;;;;;;6276999;22;19926;-89
2022/03/31 12:12:30;;;;;;;;;;;14.80;37.50;;;;;;6302287;22;19907;-87
2022/03/31 12:14:56;;;;;;;;;;;14.80;37.60;;;;;;6276290;22;19911;-89
2022/03/31 12:17:22;;;;;;;;;;;14.80;37.40;;;;;;6302010;22;19911;-88
2022/03/31 12:19:48;;;;;;;;;;;14.70;37.50;;;;;;6277769;22;20240;-89
2022/03/31 12:22:14;;;;;;;;;;;14.60;37.50;;;;;;6277256;22;19915;-88
2022/03/31 12:24:50;;;;;;;;;;;14.60;37.30;;;;;;6275686;22;19907;-87
2022/03/31 12:27:17;;;;;;;;;;;14.60;37.50;;;;;;6277530;22;20376;-89
2022/03/31 12:29:43;;;;;;;;;;;14.60;37.80;;;;;;6301964;22;19964;-88
2022/03/31 12:32:09;;;;;;;;;;;14.60;37.90;;;;;;6278871;22;19911;-87
2022/03/31 12:34:55;;;;;;;;;;;14.50;37.80;;;;;;6275298;22;19911;-88
2022/03/31 12:37:30;;;;;;;;;;;14.60;37.60;;;;;;6301571;22;20014;-88
2022/03/31 12:39:58;;;;;;;;;;;14.50;37.80;;;;;;6281247;22;19922;-86
2022/03/31 12:42:24;;;;;;;;;;;14.40;38.00;;;;;;6307336;22;19912;-89
2022/03/31 12:44:49;;;;;;;;;;;14.40;38.10;;;;;;6282413;22;19931;-87
2022/03/31 12:47:21;;;;;;;;;;;14.30;38.20;;;;;;6278859;22;19923;-88
2022/03/31 12:49:46;;;;;;;;;;;14.30;38.00;;;;;;6302710;22;19969;-88
2022/03/31 12:52:13;;;;;;;;;;;14.30;38.20;;;;;;6277821;22;20704;-90
2022/03/31 12:54:56;;;;;;;;;;;14.20;38.30;;;;;;6275128;22;19911;-87
2022/03/31 12:57:26;;;;;;;;;;;14.30;38.00;;;;;;6279119;22;19916;-88
2022/03/31 12:59:57;;;;;;;;;;;14.20;38.20;;;;;;6278443;22;19911;-86
2022/03/31 13:02:22;;;;;;;;;;;14.10;38.00;;;;;;6279183;22;19902;-90
2022/03/31 13:04:49;;;;;;;;;;;13.90;38.20;;;;;;6282637;22;19915;-92
2022/03/31 13:07:16;;;;;;;;;;;13.90;38.40;;;;;;6279087;22;19911;-91
2022/03/31 13:09:49;;;;;;;;;;;13.80;38.70;;;;;;6281510;22;19911;-89
2022/03/31 13:12:18;;;;;;;;;;;13.80;38.60;;;;;;6284041;22;19986;-89
2022/03/31 13:14:44;;;;;;;;;;;13.70;38.70;;;;;;6309218;22;19921;-90
2022/03/31 13:17:11;;;;;;;;;;;13.60;38.80;;;;;;6307989;22;19935;-92
2022/03/31 13:19:37;;;;;;;;;;;13.60;39.10;;;;;;6310679;22;19911;-92
2022/03/31 13:22:04;;;;;;;;;;;13.40;38.90;;;;;;6309557;22;19910;-90
2022/03/31 13:24:33;;;;;;;;;;;13.50;39.20;;;;;;6283217;22;19919;-92
2022/03/31 13:27:00;;;;;;;;;;;13.50;39.20;;;;;;6284876;22;19910;-91
2022/03/31 13:29:25;;;;;;;;;;;13.40;39.30;;;;;;6307566;22;20300;-92
2022/03/31 13:31:52;;;;;;;;;;;13.50;39.50;;;;;;6306084;22;20360;-91
2022/03/31 13:34:20;;;;;;;;;;;13.50;39.30;;;;;;6280832;22;19935;-92
2022/03/31 13:36:48;;;;;;;;;;;13.50;39.00;;;;;;6307100;22;19908;-92
2022/03/31 13:39:15;;;;;;;;;;;13.40;38.80;;;;;;6305985;22;19915;-91
2022/03/31 13:41:44;;;;;;;;;;;13.40;38.70;;;;;;6306129;22;19937;-93
2022/03/31 13:44:12;;;;;;;;;;;13.40;38.80;;;;;;6281496;22;19931;-89
2022/03/31 13:46:37;;;;;;;;;;;13.50;38.50;;;;;;6280602;22;19927;-92
2022/03/31 13:49:03;;;;;;;;;;;13.40;38.00;;;;;;6281235;22;20298;-90
2022/03/31 13:51:28;;;;;;;;;;;13.30;37.40;;;;;;6306542;22;19907;-91
2022/03/31 13:53:56;;;;;;;;;;;13.50;37.60;;;;;;6306341;22;19907;-91
2022/03/31 13:56:22;;;;;;;;;;;13.60;37.60;;;;;;6280969;22;19907;-92
2022/03/31 14:01:34;;;;;;;;;;;13.50;36.80;;;;;;6281644;22;19930;-91
2022/03/31 14:04:00;;;;;;;;;;;13.50;36.60;;;;;;6282944;22;19907;-92
2022/03/31 14:06:28;;;;;;;;;;;13.50;36.60;;;;;;6305565;22;19916;-91
2022/03/31 14:08:54;;;;;;;;;;;13.60;36.50;;;;;;6267863;22;19918;-92
2022/03/31 14:11:20;;;;;;;;;;;13.70;36.60;;;;;;6283153;22;19907;-92
2022/03/31 14:13:45;;;;;;;;;;;13.70;36.40;;;;;;6279926;22;19912;-91
2022/03/31 14:16:11;;;;;;;;;;;13.80;36.40;;;;;;6281305;22;19907;-86
2022/03/31 14:18:38;;;;;;;;;;;13.90;36.20;;;;;;6276812;22;19919;-89
2022/03/31 14:21:06;;;;;;;;;;;14.00;36.20;;;;;;6277977;22;19907;-89
2022/03/31 14:23:32;;;;;;;;;;;14.10;35.80;;;;;;6279134;22;19961;-89
2022/03/31 14:26:01;;;;;;;;;;;14.20;35.50;;;;;;6278812;22;19908;-88
2022/03/31 14:28:31;;;;;;;;;;;14.20;35.10;;;;;;6302636;22;19954;-87